createdAt,value
2023-05-23T00:00:07.674Z,16.7451
2023-05-23T00:01:15.562Z,16.7575
2023-05-23T00:02:23.694Z,16.7531
2023-05-23T00:03:31.715Z,16.8053
2023-05-23T00:04:39.889Z,16.9364
2023-05-23T00:05:47.911Z,16.9335
2023-05-23T00:06:56.075Z,16.9556
2023-05-23T00:08:03.752Z,17.0178
2023-05-23T00:09:11.996Z,17.0478
2023-05-23T00:10:19.874Z,17.0260
2023-05-23T00:11:28.308Z,17.0975
2023-05-23T00:12:36.148Z,17.2011
2023-05-23T00:13:44.212Z,17.2509
2023-05-23T00:14:52.235Z,17.2086
2023-05-23T00:16:00.478Z,17.2732
2023-05-23T00:17:08.504Z,17.3405
2023-05-23T00:18:16.465Z,17.2822
2023-05-23T00:19:24.414Z,17.2662
2023-05-23T00:20:32.550Z,17.2316
2023-05-23T00:21:40.714Z,17.1733
2023-05-23T00:22:48.729Z,17.1582
2023-05-23T00:23:56.741Z,17.1569
2023-05-23T00:25:04.920Z,17.1136
2023-05-23T00:26:12.888Z,17.0396
2023-05-23T00:27:20.909Z,16.9356
2023-05-23T00:28:29.020Z,16.8656
2023-05-23T00:29:37.109Z,16.7916
2023-05-23T00:30:45.065Z,16.7298
2023-05-23T00:31:53.311Z,16.7102
2023-05-23T00:33:01.506Z,16.6999
2023-05-23T00:34:09.249Z,16.6550
2023-05-23T00:35:17.398Z,16.5618
2023-05-23T00:36:25.392Z,16.4460
2023-05-23T00:37:33.610Z,16.3514
2023-05-23T00:38:41.731Z,16.2795
2023-05-23T00:39:49.675Z,16.1305
2023-05-23T00:40:57.735Z,16.0310
2023-05-23T00:42:05.727Z,15.8757
2023-05-23T00:43:14.003Z,15.7691
2023-05-23T00:44:22.560Z,15.7115
2023-05-23T00:45:29.993Z,15.6548
2023-05-23T00:46:38.339Z,15.6112
2023-05-23T00:47:46.151Z,15.5968
2023-05-23T00:48:54.192Z,15.5736
2023-05-23T00:50:02.241Z,15.4994
2023-05-23T00:51:10.445Z,15.4725
2023-05-23T00:52:18.410Z,15.4309
2023-05-23T00:53:26.674Z,15.3989
2023-05-23T00:54:34.460Z,15.3876
2023-05-23T00:55:42.689Z,15.3781
2023-05-23T00:56:50.641Z,15.3901
2023-05-23T00:57:58.692Z,15.3388
2023-05-23T00:59:06.623Z,15.3279
2023-05-23T01:00:14.775Z,15.3981
2023-05-23T01:01:23.044Z,15.4654
2023-05-23T01:02:30.977Z,15.4542
2023-05-23T01:03:39.153Z,15.4351
2023-05-23T01:04:46.882Z,15.2863
2023-05-23T01:05:55.187Z,15.2125
2023-05-23T01:07:03.216Z,15.2781
2023-05-23T01:08:11.243Z,15.3291
2023-05-23T01:09:19.300Z,15.3773
2023-05-23T01:10:27.451Z,15.3611
2023-05-23T01:11:35.438Z,15.3199
2023-05-23T01:12:43.486Z,15.3140
2023-05-23T01:13:51.503Z,15.3046
2023-05-23T01:14:59.567Z,15.2463
2023-05-23T01:16:07.655Z,15.2219
2023-05-23T01:17:15.649Z,15.2251
2023-05-23T01:18:23.766Z,15.2301
2023-05-23T01:19:31.683Z,15.1425
2023-05-23T01:20:39.855Z,15.1397
2023-05-23T01:21:47.936Z,15.1021
2023-05-23T01:22:55.895Z,15.0967
2023-05-23T01:24:04.051Z,15.0908
2023-05-23T01:25:12.057Z,15.0670
2023-05-23T01:26:20.323Z,15.0540
2023-05-23T01:27:28.222Z,15.0391
2023-05-23T01:28:36.362Z,15.0176
2023-05-23T01:29:44.391Z,14.9962
2023-05-23T01:30:52.442Z,14.9785
2023-05-23T01:32:00.497Z,14.9524
2023-05-23T01:33:08.592Z,14.9461
2023-05-23T01:34:16.478Z,14.9300
2023-05-23T01:35:24.688Z,14.9417
2023-05-23T01:36:32.715Z,14.9529
2023-05-23T01:37:40.761Z,14.9808
2023-05-23T01:38:49.036Z,14.9751
2023-05-23T01:39:56.774Z,14.9516
2023-05-23T01:41:05.046Z,14.9867
2023-05-23T01:42:13.072Z,14.9674
2023-05-23T01:43:21.051Z,14.8913
2023-05-23T01:44:29.268Z,14.8507
2023-05-23T01:45:37.207Z,14.8270
2023-05-23T01:46:45.240Z,14.8059
2023-05-23T01:47:53.379Z,14.7382
2023-05-23T01:49:01.522Z,14.7408
2023-05-23T01:50:09.392Z,14.7572
2023-05-23T01:51:17.354Z,14.7677
2023-05-23T01:52:25.534Z,14.7624
2023-05-23T01:53:33.603Z,14.7538
2023-05-23T01:54:41.941Z,14.7555
2023-05-23T01:55:49.724Z,14.7511
2023-05-23T01:56:57.699Z,14.7260
2023-05-23T01:58:05.798Z,14.7387
2023-05-23T01:59:13.864Z,14.7435
2023-05-23T02:00:22.005Z,14.7534
2023-05-23T02:01:30.048Z,14.7557
2023-05-23T02:02:38.230Z,14.7479
2023-05-23T02:03:46.136Z,14.7601
2023-05-23T02:04:54.248Z,14.7546
2023-05-23T02:06:02.310Z,14.7754
2023-05-23T02:07:10.287Z,14.7683
2023-05-23T02:08:18.355Z,14.7458
2023-05-23T02:09:26.523Z,14.7406
2023-05-23T02:10:34.571Z,14.7466
2023-05-23T02:11:42.546Z,14.7534
2023-05-23T02:12:50.714Z,14.7679
2023-05-23T02:13:58.654Z,14.7479
2023-05-23T02:15:06.712Z,14.6888
2023-05-23T02:16:14.969Z,14.7389
2023-05-23T02:17:22.897Z,14.8173
2023-05-23T02:18:30.915Z,14.8568
2023-05-23T02:19:38.906Z,14.8953
2023-05-23T02:20:47.030Z,14.8986
2023-05-23T02:21:55.136Z,14.8824
2023-05-23T02:23:03.157Z,14.8690
2023-05-23T02:24:11.453Z,14.8866
2023-05-23T02:25:19.326Z,14.9016
2023-05-23T02:26:27.367Z,14.8967
2023-05-23T02:27:35.419Z,14.8892
2023-05-23T02:28:43.391Z,14.8886
2023-05-23T02:29:51.506Z,14.8515
2023-05-23T02:30:59.806Z,14.8289
2023-05-23T02:32:07.663Z,14.7933
2023-05-23T02:33:15.764Z,14.8438
2023-05-23T02:34:23.889Z,14.8660
2023-05-23T02:35:31.822Z,14.9293
2023-05-23T02:36:39.925Z,14.9619
2023-05-23T02:37:47.921Z,14.9840
2023-05-23T02:38:56.211Z,14.9831
2023-05-23T02:40:03.924Z,14.9794
2023-05-23T02:41:12.187Z,14.9407
2023-05-23T02:42:20.208Z,14.9407
2023-05-23T02:43:28.091Z,14.9142
2023-05-23T02:44:36.372Z,14.9281
2023-05-23T02:45:44.389Z,14.9224
2023-05-23T02:46:52.629Z,14.9243
2023-05-23T02:48:00.458Z,14.9054
2023-05-23T02:49:08.546Z,14.8680
2023-05-23T02:50:16.552Z,14.8080
2023-05-23T02:51:24.531Z,14.7441
2023-05-23T02:52:32.722Z,14.6966
2023-05-23T02:53:40.902Z,14.6878
2023-05-23T02:54:48.664Z,14.6327
2023-05-23T02:55:56.867Z,14.5722
2023-05-23T02:57:04.969Z,14.5345
2023-05-23T02:58:12.969Z,14.4883
2023-05-23T02:59:21.050Z,14.4568
2023-05-23T03:00:29.155Z,14.4496
2023-05-23T03:01:37.138Z,14.4212
2023-05-23T03:02:45.472Z,14.3946
2023-05-23T03:03:53.256Z,14.3609
2023-05-23T03:05:01.308Z,14.3006
2023-05-23T03:06:09.256Z,14.3409
2023-05-23T03:07:27.486Z,14.4513
2023-05-23T03:08:30.351Z,14.4906
2023-05-23T03:09:38.394Z,14.4130
2023-05-23T03:10:46.464Z,14.4683
2023-05-23T03:11:54.643Z,14.5329
2023-05-23T03:13:02.635Z,14.5709
2023-05-23T03:14:10.634Z,14.5976
2023-05-23T03:15:18.712Z,14.6296
2023-05-23T03:16:26.862Z,14.6813
2023-05-23T03:17:34.697Z,14.7290
2023-05-23T03:18:42.925Z,14.7589
2023-05-23T03:19:50.955Z,14.8026
2023-05-23T03:20:59.009Z,14.8524
2023-05-23T03:22:07.207Z,14.9188
2023-05-23T03:23:15.146Z,14.9751
2023-05-23T03:24:23.185Z,15.0073
2023-05-23T03:25:31.263Z,15.0618
2023-05-23T03:26:39.285Z,15.1542
2023-05-23T03:27:47.321Z,15.2520
2023-05-23T03:28:55.463Z,15.2703
2023-05-23T03:30:03.704Z,15.2568
2023-05-23T03:31:11.601Z,15.1742
2023-05-23T03:32:19.660Z,15.1889
2023-05-23T03:33:27.631Z,15.2633
2023-05-23T03:34:35.714Z,15.2863
2023-05-23T03:35:43.734Z,15.2957
2023-05-23T03:36:51.808Z,15.2415
2023-05-23T03:37:59.701Z,15.2385
2023-05-23T03:39:07.968Z,15.2547
2023-05-23T03:40:16.019Z,15.2203
2023-05-23T03:41:24.022Z,15.1721
2023-05-23T03:42:32.159Z,15.0777
2023-05-23T03:43:40.023Z,15.0756
2023-05-23T03:44:48.447Z,15.1366
2023-05-23T03:45:56.369Z,15.2013
2023-05-23T03:47:04.366Z,15.2568
2023-05-23T03:48:12.474Z,15.3861
2023-05-23T03:49:20.289Z,15.5066
2023-05-23T03:50:28.731Z,15.4916
2023-05-23T03:51:36.551Z,15.4145
2023-05-23T03:52:44.491Z,15.4670
2023-05-23T03:53:52.684Z,15.5396
2023-05-23T03:55:00.632Z,15.5524
2023-05-23T03:56:08.777Z,15.6195
2023-05-23T03:57:16.851Z,15.6949
2023-05-23T03:58:24.757Z,15.6279
2023-05-23T03:59:32.965Z,15.5150
2023-05-23T04:00:41.356Z,15.5536
2023-05-23T04:01:49.078Z,15.5732
2023-05-23T04:02:57.198Z,15.7487
2023-05-23T04:04:05.377Z,15.8587
2023-05-23T04:05:13.482Z,15.9150
2023-05-23T04:06:21.309Z,15.9827
2023-05-23T04:07:29.409Z,16.0144
2023-05-23T04:08:37.515Z,15.9726
2023-05-23T04:09:45.681Z,15.9373
2023-05-23T04:10:53.564Z,15.9907
2023-05-23T04:12:01.608Z,15.9381
2023-05-23T04:13:09.700Z,15.9272
2023-05-23T04:14:18.027Z,15.9661
2023-05-23T04:15:25.942Z,15.9503
2023-05-23T04:16:33.949Z,15.9413
2023-05-23T04:17:41.917Z,16.0178
2023-05-23T04:18:50.106Z,16.0620
2023-05-23T04:19:58.091Z,16.0828
2023-05-23T04:21:06.090Z,16.1238
2023-05-23T04:22:14.107Z,16.1586
2023-05-23T04:23:22.215Z,16.1391
2023-05-23T04:24:30.254Z,16.1355
2023-05-23T04:25:38.396Z,16.1427
2023-05-23T04:26:46.598Z,16.1689
2023-05-23T04:27:54.418Z,16.2206
2023-05-23T04:29:02.581Z,16.2513
2023-05-23T04:30:10.517Z,16.2570
2023-05-23T04:31:18.683Z,16.2904
2023-05-23T04:32:26.554Z,16.3161
2023-05-23T04:33:35.140Z,16.3558
2023-05-23T04:34:42.762Z,16.3848
2023-05-23T04:35:50.965Z,16.3701
2023-05-23T04:36:58.971Z,16.3728
2023-05-23T04:38:06.960Z,16.3756
2023-05-23T04:39:14.938Z,16.4059
2023-05-23T04:40:23.114Z,16.3535
2023-05-23T04:41:31.287Z,16.2925
2023-05-23T04:42:39.228Z,16.3411
2023-05-23T04:43:47.286Z,16.3665
2023-05-23T04:44:55.216Z,16.4092
2023-05-23T04:46:03.414Z,16.4592
2023-05-23T04:47:11.563Z,16.4826
2023-05-23T04:48:19.717Z,16.5086
2023-05-23T04:49:27.578Z,16.5561
2023-05-23T04:50:35.496Z,16.5971
2023-05-23T04:51:43.836Z,16.6407
2023-05-23T04:52:51.761Z,16.6941
2023-05-23T04:53:59.792Z,16.7344
2023-05-23T04:55:07.908Z,16.7365
2023-05-23T04:56:15.827Z,16.7533
2023-05-23T04:57:23.996Z,16.7865
2023-05-23T04:58:31.918Z,16.8065
2023-05-23T04:59:40.151Z,16.8168
2023-05-23T05:00:48.224Z,16.8135
2023-05-23T05:01:56.297Z,16.8217
2023-05-23T05:03:04.313Z,16.8696
2023-05-23T05:04:12.402Z,16.9139
2023-05-23T05:05:20.408Z,16.9358
2023-05-23T05:06:28.557Z,16.9795
2023-05-23T05:07:36.634Z,16.9860
2023-05-23T05:08:44.583Z,16.9616
2023-05-23T05:09:52.709Z,16.9301
2023-05-23T05:11:00.612Z,16.9530
2023-05-23T05:12:08.830Z,16.9944
2023-05-23T05:13:16.882Z,17.0346
2023-05-23T05:14:24.874Z,17.0314
2023-05-23T05:15:32.929Z,17.0817
2023-05-23T05:16:40.912Z,17.1506
2023-05-23T05:17:49.960Z,17.1889
2023-05-23T05:18:57.009Z,17.2034
2023-05-23T05:20:05.197Z,17.2152
2023-05-23T05:21:13.365Z,17.2528
2023-05-23T05:22:21.300Z,17.2734
2023-05-23T05:23:29.421Z,17.3075
2023-05-23T05:24:37.259Z,17.3089
2023-05-23T05:25:45.436Z,17.2892
2023-05-23T05:26:53.500Z,17.2618
2023-05-23T05:28:01.478Z,17.2704
2023-05-23T05:29:09.968Z,17.2778
2023-05-23T05:30:17.551Z,17.2442
2023-05-23T05:31:25.816Z,17.2774
2023-05-23T05:32:33.890Z,17.3451
2023-05-23T05:33:41.842Z,17.3596
2023-05-23T05:34:49.980Z,17.4269
2023-05-23T05:35:57.946Z,17.4416
2023-05-23T05:37:06.045Z,17.4659
2023-05-23T05:38:14.534Z,17.4960
2023-05-23T05:39:22.357Z,17.5000
2023-05-23T05:40:30.188Z,17.5444
2023-05-23T05:41:38.279Z,17.4746
2023-05-23T05:42:46.381Z,17.4495
2023-05-23T05:43:54.384Z,17.4092
2023-05-23T05:45:02.318Z,17.3051
2023-05-23T05:46:10.535Z,17.2477
2023-05-23T05:47:18.722Z,17.2833
2023-05-23T05:48:26.722Z,17.2950
2023-05-23T05:49:34.679Z,17.3098
2023-05-23T05:50:42.727Z,17.3020
2023-05-23T05:51:50.827Z,17.3163
2023-05-23T05:52:58.887Z,17.3022
2023-05-23T05:54:06.918Z,17.2576
2023-05-23T05:55:15.016Z,17.2669
2023-05-23T05:56:23.145Z,17.2723
2023-05-23T05:57:31.304Z,17.2728
2023-05-23T05:58:39.146Z,17.2768
2023-05-23T05:59:47.049Z,17.2534
2023-05-23T06:00:55.236Z,17.2267
2023-05-23T06:02:03.172Z,17.1574
2023-05-23T06:03:11.513Z,17.1611
2023-05-23T06:04:19.476Z,17.1332
2023-05-23T06:05:27.481Z,17.1412
2023-05-23T06:06:35.732Z,17.1475
2023-05-23T06:07:43.572Z,17.1655
2023-05-23T06:08:51.637Z,17.2210
2023-05-23T06:09:59.808Z,17.2990
2023-05-23T06:11:07.870Z,17.3819
2023-05-23T06:12:15.791Z,17.4434
2023-05-23T06:13:23.941Z,17.5256
2023-05-23T06:14:32.010Z,17.6516
2023-05-23T06:15:39.983Z,17.8004
2023-05-23T06:16:48.131Z,17.9152
2023-05-23T06:17:56.259Z,18.0180
2023-05-23T06:19:04.248Z,18.1168
2023-05-23T06:20:12.248Z,18.2170
2023-05-23T06:21:20.297Z,18.1924
2023-05-23T06:22:28.169Z,18.2246
2023-05-23T06:23:36.449Z,18.2784
2023-05-23T06:24:44.460Z,18.3141
2023-05-23T06:25:52.628Z,18.2673
2023-05-23T06:27:00.628Z,18.2578
2023-05-23T06:28:08.631Z,18.3616
2023-05-23T06:29:16.725Z,18.4434
2023-05-23T06:30:24.761Z,18.4838
2023-05-23T06:31:32.818Z,18.5653
2023-05-23T06:32:40.953Z,18.6253
2023-05-23T06:33:48.828Z,18.6423
2023-05-23T06:34:57.026Z,18.6366
2023-05-23T06:36:05.048Z,18.6559
2023-05-23T06:37:13.103Z,18.7022
2023-05-23T06:38:21.189Z,18.7339
2023-05-23T06:39:29.278Z,18.6641
2023-05-23T06:40:37.266Z,18.6757
2023-05-23T06:41:45.351Z,18.7894
2023-05-23T06:42:53.428Z,18.7556
2023-05-23T06:44:01.467Z,18.7573
2023-05-23T06:45:09.534Z,18.8220
2023-05-23T06:46:17.490Z,18.8781
2023-05-23T06:47:25.867Z,18.8329
2023-05-23T06:48:33.571Z,18.8086
2023-05-23T06:49:41.873Z,18.7484
2023-05-23T06:50:49.823Z,18.6721
2023-05-23T06:51:57.913Z,18.6013
2023-05-23T06:53:06.047Z,18.4579
2023-05-23T06:54:13.892Z,18.3364
2023-05-23T06:55:22.086Z,18.2286
2023-05-23T06:56:30.133Z,18.0831
2023-05-23T06:57:38.170Z,18.0522
2023-05-23T06:58:47.249Z,18.0989
2023-05-23T06:59:54.201Z,17.9713
2023-05-23T07:01:02.397Z,17.8740
2023-05-23T07:02:10.435Z,17.9023
2023-05-23T07:03:18.522Z,17.9642
2023-05-23T07:04:26.560Z,18.0646
2023-05-23T07:05:34.708Z,18.1041
2023-05-23T07:06:42.847Z,18.1439
2023-05-23T07:07:50.740Z,18.1296
2023-05-23T07:08:58.761Z,18.2269
2023-05-23T07:10:06.876Z,18.3022
2023-05-23T07:11:15.018Z,18.1804
2023-05-23T07:12:23.000Z,18.1548
2023-05-23T07:13:31.075Z,18.2605
2023-05-23T07:14:39.248Z,18.3297
2023-05-23T07:15:47.329Z,18.5002
2023-05-23T07:16:55.310Z,18.5630
2023-05-23T07:18:03.289Z,18.5960
2023-05-23T07:19:11.401Z,18.7121
2023-05-23T07:20:19.401Z,18.7892
2023-05-23T07:21:27.512Z,18.9233
2023-05-23T07:22:35.381Z,18.9677
2023-05-23T07:23:43.456Z,19.0341
2023-05-23T07:24:51.629Z,19.1073
2023-05-23T07:26:02.963Z,19.2857
2023-05-23T07:27:12.631Z,19.4316
2023-05-23T07:28:20.675Z,19.4697
2023-05-23T07:29:28.767Z,19.5395
2023-05-23T07:30:36.873Z,19.6370
2023-05-23T07:31:44.949Z,19.7207
2023-05-23T07:32:53.077Z,19.6683
2023-05-23T07:34:01.018Z,19.6507
2023-05-23T07:35:09.041Z,19.6399
2023-05-23T07:36:17.141Z,19.5626
2023-05-23T07:37:25.202Z,19.4867
2023-05-23T07:38:33.101Z,19.4829
2023-05-23T07:39:41.440Z,19.4400
2023-05-23T07:40:58.844Z,19.2069
2023-05-23T07:42:02.470Z,19.1665
2023-05-23T07:43:10.335Z,19.1314
2023-05-23T07:44:18.388Z,19.0928
2023-05-23T07:45:26.429Z,19.1563
2023-05-23T07:46:34.389Z,19.2170
2023-05-23T07:47:42.828Z,19.2603
2023-05-23T07:48:50.635Z,19.3612
2023-05-23T07:49:58.646Z,19.3232
2023-05-23T07:51:06.816Z,19.3312
2023-05-23T07:52:14.919Z,19.3288
2023-05-23T07:53:22.930Z,19.2622
2023-05-23T07:54:30.938Z,19.2328
2023-05-23T07:55:38.989Z,19.2416
2023-05-23T07:56:47.175Z,19.1949
2023-05-23T07:57:55.103Z,19.1342
2023-05-23T07:59:03.185Z,18.9986
2023-05-23T08:00:11.306Z,18.9950
2023-05-23T08:01:19.325Z,19.0345
2023-05-23T08:02:27.420Z,18.9574
2023-05-23T08:03:35.374Z,18.8428
2023-05-23T08:04:43.492Z,18.8594
2023-05-23T08:05:51.542Z,18.8639
2023-05-23T08:07:05.485Z,18.7953
2023-05-23T08:08:12.546Z,18.7882
2023-05-23T08:09:20.754Z,18.8103
2023-05-23T08:10:28.479Z,18.8563
2023-05-23T08:11:36.798Z,18.8025
2023-05-23T08:12:44.713Z,18.7615
2023-05-23T08:13:52.976Z,18.7373
2023-05-23T08:15:00.863Z,18.7032
2023-05-23T08:16:08.944Z,18.5555
2023-05-23T08:17:17.050Z,18.6095
2023-05-23T08:18:25.045Z,18.6421
2023-05-23T08:19:33.290Z,18.5914
2023-05-23T08:20:41.390Z,18.6616
2023-05-23T08:21:49.070Z,18.6435
2023-05-23T08:22:57.534Z,18.6919
2023-05-23T08:24:05.343Z,18.6921
2023-05-23T08:25:13.375Z,18.7548
2023-05-23T08:26:21.490Z,18.8287
2023-05-23T08:27:29.379Z,19.0362
2023-05-23T08:28:37.581Z,19.1775
2023-05-23T08:29:45.668Z,19.2902
2023-05-23T08:30:53.714Z,19.4310
2023-05-23T08:32:01.830Z,19.6057
2023-05-23T08:33:09.691Z,19.6898
2023-05-23T08:34:17.893Z,19.6112
2023-05-23T08:35:25.939Z,19.5508
2023-05-23T08:36:33.986Z,19.6254
2023-05-23T08:37:42.238Z,19.7850
2023-05-23T08:38:50.010Z,19.9494
2023-05-23T08:39:58.170Z,20.2826
2023-05-23T08:41:06.196Z,20.8161
2023-05-23T08:42:14.614Z,21.2354
2023-05-23T08:43:22.390Z,21.6794
2023-05-23T08:44:30.476Z,21.9313
2023-05-23T08:45:38.509Z,21.6796
2023-05-23T08:46:46.704Z,21.3895
2023-05-23T08:47:54.750Z,21.1364
2023-05-23T08:49:02.785Z,21.0057
2023-05-23T08:50:10.987Z,21.0412
2023-05-23T08:51:18.907Z,21.0189
2023-05-23T08:52:27.009Z,20.9855
2023-05-23T08:53:34.824Z,20.9721
2023-05-23T08:54:43.040Z,20.9954
2023-05-23T08:55:51.113Z,20.9105
2023-05-23T08:56:59.008Z,20.8243
2023-05-23T08:58:07.215Z,20.9412
2023-05-23T08:59:15.140Z,21.0528
2023-05-23T09:00:23.435Z,21.2231
2023-05-23T09:01:31.642Z,21.3445
2023-05-23T09:02:39.494Z,21.5724
2023-05-23T09:03:47.486Z,21.6298
2023-05-23T09:04:55.431Z,21.6058
2023-05-23T09:06:03.733Z,21.6779
2023-05-23T09:07:11.929Z,21.7673
2023-05-23T09:08:19.752Z,21.8421
2023-05-23T09:09:27.794Z,21.8999
2023-05-23T09:10:35.924Z,21.9203
2023-05-23T09:11:43.936Z,21.9880
2023-05-23T09:12:51.975Z,22.1001
2023-05-23T09:13:59.934Z,22.0359
2023-05-23T09:15:08.107Z,22.1326
2023-05-23T09:16:16.052Z,22.0677
2023-05-23T09:17:24.383Z,22.1833
2023-05-23T09:18:32.332Z,22.2537
2023-05-23T09:19:40.413Z,22.4044
2023-05-23T09:20:48.429Z,22.5602
2023-05-23T09:21:56.487Z,22.6889
2023-05-23T09:23:04.552Z,22.7296
2023-05-23T09:24:12.847Z,22.7387
2023-05-23T09:25:20.507Z,22.7660
2023-05-23T09:26:28.750Z,22.7265
2023-05-23T09:27:36.770Z,22.7036
2023-05-23T09:28:44.756Z,22.6445
2023-05-23T09:29:52.902Z,22.5226
2023-05-23T09:31:01.068Z,22.3162
2023-05-23T09:32:09.300Z,22.2310
2023-05-23T09:33:17.183Z,22.0835
2023-05-23T09:34:25.142Z,21.9895
2023-05-23T09:35:33.177Z,21.9998
2023-05-23T09:36:41.157Z,22.0599
2023-05-23T09:37:49.333Z,22.1490
2023-05-23T09:38:57.415Z,22.1940
2023-05-23T09:40:05.564Z,22.2649
2023-05-23T09:41:13.496Z,22.3372
2023-05-23T09:42:21.437Z,22.3414
2023-05-23T09:43:29.747Z,22.4664
2023-05-23T09:44:37.698Z,22.4238
2023-05-23T09:45:45.796Z,22.2596
2023-05-23T09:46:53.963Z,22.3264
2023-05-23T09:48:01.895Z,22.5352
2023-05-23T09:49:10.088Z,22.6083
2023-05-23T09:50:18.048Z,22.6350
2023-05-23T09:51:26.046Z,22.7349
2023-05-23T09:52:34.076Z,22.8106
2023-05-23T09:53:42.273Z,22.7496
2023-05-23T09:54:50.096Z,22.6182
2023-05-23T09:55:58.259Z,22.6546
2023-05-23T09:57:07.181Z,23.1984
2023-05-23T09:58:14.427Z,23.7614
2023-05-23T09:59:22.517Z,24.3747
2023-05-23T10:00:30.391Z,24.9257
2023-05-23T10:01:38.812Z,25.5112
2023-05-23T10:02:46.607Z,26.0403
2023-05-23T10:03:55.567Z,26.5250
2023-05-23T10:05:02.807Z,27.4058
2023-05-23T10:06:10.701Z,28.0492
2023-05-23T10:07:18.908Z,28.3526
2023-05-23T10:08:26.807Z,28.4966
2023-05-23T10:09:35.264Z,28.6820
2023-05-23T10:10:43.245Z,28.9626
2023-05-23T10:11:51.147Z,29.2794
2023-05-23T10:12:59.254Z,29.6315
2023-05-23T10:14:07.237Z,30.1446
2023-05-23T10:15:15.397Z,30.3351
2023-05-23T10:16:23.424Z,30.2325
2023-05-23T10:17:31.488Z,30.4803
2023-05-23T10:18:39.729Z,29.3540
2023-05-23T10:19:47.601Z,28.9887
2023-05-23T10:20:55.806Z,29.1985
2023-05-23T10:22:03.752Z,29.2994
2023-05-23T10:23:11.907Z,29.8524
2023-05-23T10:24:19.904Z,30.4166
2023-05-23T10:25:27.932Z,31.1570
2023-05-23T10:26:35.909Z,31.8904
2023-05-23T10:27:44.311Z,32.4405
2023-05-23T10:28:52.235Z,32.6543
2023-05-23T10:30:00.221Z,32.9245
2023-05-23T10:31:08.325Z,32.9396
2023-05-23T10:32:16.404Z,32.6897
2023-05-23T10:33:24.379Z,32.4725
2023-05-23T10:34:32.355Z,32.3277
2023-05-23T10:35:40.578Z,32.3556
2023-05-23T10:36:48.631Z,32.2743
2023-05-23T10:37:56.519Z,32.2600
2023-05-23T10:39:04.716Z,32.6628
2023-05-23T10:40:12.659Z,32.8603
2023-05-23T10:41:20.833Z,32.5949
2023-05-23T10:42:28.971Z,31.7227
2023-05-23T10:43:36.864Z,30.4383
2023-05-23T10:44:45.132Z,29.4680
2023-05-23T10:45:53.002Z,28.5119
2023-05-23T10:47:01.273Z,27.9721
2023-05-23T10:48:09.283Z,27.4335
2023-05-23T10:49:17.300Z,26.6917
2023-05-23T10:50:25.371Z,25.9192
2023-05-23T10:51:33.454Z,25.4926
2023-05-23T10:52:41.554Z,25.3077
2023-05-23T10:53:49.579Z,24.9390
2023-05-23T10:54:57.676Z,24.7289
2023-05-23T10:56:05.747Z,24.8004
2023-05-23T10:57:13.760Z,24.5721
2023-05-23T10:58:21.762Z,24.2524
2023-05-23T10:59:29.964Z,24.1612
2023-05-23T11:00:37.987Z,24.0989
2023-05-23T11:01:46.006Z,24.2118
2023-05-23T11:02:54.155Z,24.4813
2023-05-23T11:04:02.306Z,24.7165
2023-05-23T11:05:10.194Z,25.8138
2023-05-23T11:06:18.254Z,26.8136
2023-05-23T11:07:26.499Z,27.3078
2023-05-23T11:08:46.715Z,27.8073
2023-05-23T11:09:47.277Z,28.5031
2023-05-23T11:10:55.330Z,28.9653
2023-05-23T11:12:03.439Z,29.1652
2023-05-23T11:13:11.634Z,29.3038
2023-05-23T11:14:19.845Z,29.7141
2023-05-23T11:15:27.584Z,29.8701
2023-05-23T11:16:35.669Z,29.5356
2023-05-23T11:17:43.917Z,28.6828
2023-05-23T11:18:51.747Z,28.1503
2023-05-23T11:19:59.889Z,27.9845
2023-05-23T11:21:07.936Z,27.6376
2023-05-23T11:22:16.061Z,27.3375
2023-05-23T11:23:24.083Z,27.3570
2023-05-23T11:24:32.205Z,27.1638
2023-05-23T11:25:40.290Z,27.0152
2023-05-23T11:26:48.179Z,26.8588
2023-05-23T11:27:56.248Z,26.4815
2023-05-23T11:29:04.471Z,26.2383
2023-05-23T11:30:12.716Z,26.0907
2023-05-23T11:31:20.619Z,26.0573
2023-05-23T11:32:28.787Z,26.1906
2023-05-23T11:33:36.699Z,26.5490
2023-05-23T11:34:44.815Z,26.6967
2023-05-23T11:35:52.698Z,26.5099
2023-05-23T11:37:00.844Z,26.1649
2023-05-23T11:38:09.059Z,25.8620
2023-05-23T11:39:17.000Z,25.7590
2023-05-23T11:40:25.120Z,25.4502
2023-05-23T11:41:33.170Z,25.3060
2023-05-23T11:42:41.217Z,25.1471
2023-05-23T11:43:49.246Z,25.1298
2023-05-23T11:44:57.463Z,25.0174
2023-05-23T11:46:05.467Z,24.8793
2023-05-23T11:47:13.448Z,24.5854
2023-05-23T11:48:21.512Z,24.3846
2023-05-23T11:49:29.717Z,24.2961
2023-05-23T11:50:37.559Z,24.1809
2023-05-23T11:51:45.740Z,24.0880
2023-05-23T11:52:53.809Z,23.7828
2023-05-23T11:54:01.926Z,23.5965
2023-05-23T11:55:09.801Z,23.3987
2023-05-23T11:56:18.101Z,23.2604
2023-05-23T11:57:26.140Z,23.1631
2023-05-23T11:58:34.149Z,23.0393
2023-05-23T11:59:42.261Z,22.8068
2023-05-23T12:00:50.798Z,22.6477
2023-05-23T12:01:58.341Z,22.4280
2023-05-23T12:03:06.483Z,22.4477
2023-05-23T12:04:14.514Z,22.3294
2023-05-23T12:05:22.618Z,22.2365
2023-05-23T12:06:30.606Z,22.3187
2023-05-23T12:07:38.651Z,22.3296
2023-05-23T12:08:46.702Z,22.2956
2023-05-23T12:09:54.800Z,22.1551
2023-05-23T12:11:02.904Z,22.1862
2023-05-23T12:12:11.039Z,22.3853
2023-05-23T12:13:18.935Z,22.4955
2023-05-23T12:14:27.207Z,23.1004
2023-05-23T12:15:35.080Z,23.2720
2023-05-23T12:16:43.274Z,23.8051
2023-05-23T12:17:51.234Z,24.4664
2023-05-23T12:18:59.229Z,24.2534
2023-05-23T12:20:07.352Z,24.0649
2023-05-23T12:21:15.384Z,23.8087
2023-05-23T12:22:23.358Z,23.5415
2023-05-23T12:23:34.503Z,23.2722
2023-05-23T12:24:44.304Z,22.9380
2023-05-23T12:25:52.562Z,22.7887
2023-05-23T12:27:00.556Z,22.6060
2023-05-23T12:28:08.601Z,22.2525
2023-05-23T12:29:16.559Z,21.9409
2023-05-23T12:30:24.680Z,21.8545
2023-05-23T12:31:32.986Z,21.6353
2023-05-23T12:32:41.191Z,21.5211
2023-05-23T12:33:49.792Z,21.3654
2023-05-23T12:34:57.122Z,21.2092
2023-05-23T12:36:05.299Z,20.9641
2023-05-23T12:37:19.428Z,20.8230
2023-05-23T12:38:26.089Z,20.8091
2023-05-23T12:39:34.003Z,20.8403
2023-05-23T12:40:42.160Z,20.8260
2023-05-23T12:41:50.277Z,20.8999
2023-05-23T12:42:58.165Z,20.8941
2023-05-23T12:44:06.358Z,20.8976
2023-05-23T12:45:14.639Z,20.9634
2023-05-23T12:46:22.745Z,21.3494
2023-05-23T12:47:30.671Z,22.3002
2023-05-23T12:48:38.565Z,23.4769
2023-05-23T12:49:46.668Z,25.1746
2023-05-23T12:50:54.644Z,26.3350
2023-05-23T12:52:02.778Z,27.2515
2023-05-23T12:53:10.958Z,28.1058
2023-05-23T12:54:19.089Z,27.7499
2023-05-23T12:55:27.029Z,27.0472
2023-05-23T12:56:35.048Z,26.2425
2023-05-23T12:57:43.193Z,25.6306
2023-05-23T12:58:51.321Z,25.2375
2023-05-23T12:59:59.337Z,25.0077
2023-05-23T13:01:07.430Z,24.7969
2023-05-23T13:02:15.506Z,25.0937
2023-05-23T13:03:23.760Z,25.5055
2023-05-23T13:04:32.615Z,25.3634
2023-05-23T13:05:40.235Z,25.3497
2023-05-23T13:06:47.732Z,25.1838
2023-05-23T13:07:55.766Z,25.4113
2023-05-23T13:09:03.707Z,26.1742
2023-05-23T13:10:12.028Z,25.8708
2023-05-23T13:11:19.890Z,25.5593
2023-05-23T13:12:28.106Z,25.4435
2023-05-23T13:13:36.237Z,25.1139
2023-05-23T13:14:44.255Z,24.8017
2023-05-23T13:15:52.323Z,24.5845
2023-05-23T13:17:00.745Z,24.5044
2023-05-23T13:18:08.443Z,24.3006
2023-05-23T13:19:16.482Z,23.9606
2023-05-23T13:20:24.594Z,23.6363
2023-05-23T13:21:32.589Z,23.2783
2023-05-23T13:22:40.508Z,23.1259
2023-05-23T13:23:48.845Z,22.8385
2023-05-23T13:24:56.811Z,22.4540
2023-05-23T13:26:04.875Z,22.0704
2023-05-23T13:27:12.999Z,21.9443
2023-05-23T13:28:20.961Z,21.8318
2023-05-23T13:29:29.014Z,21.9302
2023-05-23T13:30:36.966Z,22.0498
2023-05-23T13:31:45.324Z,21.9163
2023-05-23T13:32:53.300Z,21.9638
2023-05-23T13:34:01.333Z,22.1310
2023-05-23T13:35:09.345Z,22.1385
2023-05-23T13:36:17.408Z,22.0683
2023-05-23T13:37:25.505Z,21.9037
2023-05-23T13:38:33.676Z,21.8962
2023-05-23T13:39:41.729Z,21.7036
2023-05-23T13:40:51.362Z,21.6094
2023-05-23T13:41:57.767Z,21.4223
2023-05-23T13:43:05.772Z,21.1880